X  Chiuso Dati meteorologici dell'aviazione (METAR)     LICJ Falcone–Borsellino Airport
Temperatura
23°C Temperatura
16°C Punto di rugiada
65% Umidità



Vento
10 KM/H
6 MPH
3 M/S
5 KTS



20°
NNE
Condizioni attuali

Chiaro Chiaro
Pressione 1016.92 (hPa) - 30.03 (inHg)
Visibilità 6.2 (miglio) - 10 (km)
Aeroporto
Codice-Aeroporto LICJ

Posizione: Falcone–Borsellino Airport
Distanza: 55 (km)

Metar:
LICJ 170620Z 02005KT 330V050 CAVOK 23/16 Q1017

Ore: 17-06-2021 08:20 CEST